Latest Weather Observations for Gabo Island

IDN60801

Issued at 1:03 pm EST Tuesday 4 August 2015 (issued every 30 minutes, with the page automatically refreshed every 10 minutes)

About weather observations | Map of weather stations | Latest weather observations for NSW | Other Formats
Station Details ID: 084016 Name: GABO ISLAND LIGHTHOUSE Lat: -37.57 Lon: 149.92 Height: 15.2 m
Data from the previous 72 hours. | See also: Recent months at Gabo Island
Date/Time
EST
Temp
°C
App
Temp
°C
Dew
Point
Rel
Hum
%
Delta-T
°C
Wind Press
QNH
hPa
Press
MSL
hPa
Rain
since 9 am
mm
Dir
 
Spd
km/h
Gust
km/h
Spd
kts
Gust
kts
04/01:00pm 11.8 5.9 -0.6 42 5.0 W 20 26 11 14 1018.9 - 0.0
04/12:30pm 11.5 4.8 -0.8 42 4.9 W 24 32 13 17 1019.5 - 0.0
04/12:00pm 11.3 3.6 -0.4 44 4.7 W 30 35 16 19 1019.7 1019.7 0.0
04/11:30am 10.8 2.0 -1.5 42 4.8 WSW 35 44 19 24 1020.0 - 0.0
04/11:00am 10.4 1.2 -1.1 45 4.5 WSW 37 50 20 27 1020.4 - 0.0
04/10:30am 9.9 1.2 -0.8 47 4.2 W 35 46 19 25 1021.0 - 0.0
04/10:00am 9.4 1.4 0.4 53 3.6 W 32 41 17 22 1021.3 - 0.0
04/09:30am 8.3 1.0 0.2 56 3.2 W 28 33 15 18 1021.4 - 0.0
04/09:00am 7.4 0.5 0.2 60 2.8 WNW 26 32 14 17 1021.7 1021.7 1.0
04/08:30am 6.5 0.0 0.0 63 2.5 WNW 24 32 13 17 1021.7 - 1.0
04/08:00am 6.0 0.3 0.6 68 2.1 WNW 20 30 11 16 1021.8 - 1.0
04/07:30am 5.8 0.3 0.7 70 2.0 WNW 19 26 10 14 1021.7 - 1.0
04/07:00am 5.8 0.7 0.7 70 2.0 WNW 17 28 9 15 1021.5 - 1.0
04/06:30am 6.3 0.6 0.7 67 2.2 WNW 20 30 11 16 1021.4 - 1.0
04/06:00am 6.6 0.3 1.3 69 2.1 WNW 24 32 13 17 1021.3 1021.3 1.0
04/05:30am 6.8 -0.3 1.3 68 2.2 W 28 39 15 21 1021.0 - 1.0
04/05:12am 6.6 -0.4 1.9 72 1.9 W 28 46 15 25 1020.8 - 1.0
04/05:00am 7.0 -2.5 1.5 68 2.2 W 41 50 22 27 1020.6 - 1.0
04/04:30am 7.2 -2.3 1.5 67 2.3 W 41 50 22 27 1020.6 - 1.0
04/04:00am 7.3 -1.1 1.3 65 2.4 W 35 46 19 25 1020.5 - 1.0
04/03:33am 6.8 -0.2 1.9 71 2.0 W 28 46 15 25 1020.6 - 1.0
04/03:30am 6.3 -0.2 2.4 76 1.6 W 26 41 14 22 1020.7 - 1.0
04/03:00am 6.1 0.6 2.1 75 1.6 WNW 20 32 11 17 1020.5 1020.5 1.0
04/02:34am 7.0 -1.3 2.1 71 2.0 W 35 54 19 29 1020.5 - 1.0
04/02:30am 6.8 -1.1 2.4 73 1.8 W 33 46 18 25 1020.6 - 1.0
04/02:00am 6.3 -0.7 2.1 74 1.7 WNW 28 37 15 20 1020.7 - 1.0
04/01:30am 6.8 -1.1 2.4 73 1.8 W 33 43 18 23 1020.9 - 1.0
04/01:15am 6.6 -1.3 2.2 73 1.8 W 33 52 18 28 1020.7 - 1.0
04/01:00am 7.2 -2.2 2.6 72 1.9 W 41 57 22 31 1020.6 - 1.0
04/12:30am 7.1 -3.6 2.5 72 1.9 W 48 63 26 34 1020.5 - 1.0
04/12:00am 6.9 -3.1 2.3 72 1.9 W 44 54 24 29 1020.5 1020.4 1.0
 
Date/Time
EST
Temp
°C
App
Temp
°C
Dew
Point
Rel
Hum
%
Delta-T
°C
Wind Press
QNH
hPa
Press
MSL
hPa
Rain
since 9 am
mm
Dir
 
Spd
km/h
Gust
km/h
Spd
kts
Gust
kts
03/11:30pm 6.8 -2.2 2.4 73 1.8 W 39 54 21 29 1020.5 - 1.0
03/11:00pm 6.6 -3.4 2.2 73 1.8 W 44 57 24 31 1020.1 - 1.0
03/10:30pm 6.5 -3.4 2.6 76 1.6 W 44 56 24 30 1020.1 - 1.0
03/10:00pm 6.4 -3.8 3.0 79 1.4 W 46 63 25 34 1020.0 - 1.0
03/09:30pm 6.8 -3.1 2.7 75 1.7 W 44 56 24 30 1019.9 - 1.0
03/09:00pm 6.7 -3.2 2.8 76 1.6 W 44 56 24 30 1019.4 1019.4 1.0
03/08:30pm 7.3 -3.6 3.3 76 1.7 W 50 65 27 35 1019.4 - 1.0
03/08:27pm 7.0 -3.3 2.9 75 1.7 W 46 65 25 35 1019.3 - 1.0
03/08:00pm 6.9 -3.4 2.5 73 1.8 W 46 57 25 31 1019.2 - 1.0
03/07:30pm 7.0 -3.7 2.7 74 1.8 W 48 65 26 35 1018.9 - 1.0
03/07:11pm 7.1 -4.0 2.2 71 2.0 W 50 69 27 37 1018.5 - 1.0
03/07:00pm 7.1 -3.2 2.5 72 1.9 W 46 61 25 33 1018.4 - 1.0
03/06:30pm 7.0 -1.9 3.2 77 1.6 W 39 50 21 27 1018.0 - 1.0
03/06:00pm 6.9 -3.4 2.8 75 1.7 W 46 59 25 32 1017.7 1017.8 1.0
03/05:30pm 7.3 -4.5 3.0 74 1.8 W 54 67 29 36 1017.2 - 1.0
03/05:00pm 7.5 -3.2 2.4 70 2.1 W 48 74 26 40 1016.7 - 1.0
03/04:30pm 8.4 -3.3 3.2 70 2.2 WSW 54 74 29 40 1016.1 - 1.0
03/04:05pm 8.7 -3.0 3.1 68 2.4 WSW 54 72 29 39 1015.5 - 1.0
03/04:00pm 8.9 -3.4 3.0 66 2.5 WSW 57 72 31 39 1015.3 - 1.0
03/03:48pm 9.1 -2.9 4.6 73 2.0 SW 57 76 31 41 1015.2 - 1.0
03/03:30pm 8.8 -7.7 4.2 73 2.0 SW 80 102 43 55 1015.0 - 1.0
03/03:26pm 9.4 -7.6 4.7 72 2.1 SW 83 102 45 55 1014.9 - 1.0
03/03:23pm 9.2 -8.3 3.7 68 2.4 SW 85 100 46 54 1014.5 - 1.0
03/03:00pm 9.6 -3.6 0.1 51 3.8 WSW 59 80 32 43 1014.4 1014.2 1.0
03/02:31pm 9.6 -2.1 3.1 64 2.8 WSW 54 72 29 39 1013.7 - 1.0
03/02:30pm 9.5 -2.7 2.7 62 2.9 WSW 56 72 30 39 1013.6 - 1.0
03/02:15pm 9.4 -1.8 3.9 68 2.4 WSW 52 72 28 39 1013.5 - 1.0
03/02:00pm 9.0 -2.5 4.5 73 2.0 W 54 65 29 35 1013.5 - 1.0
03/01:50pm 8.6 -2.2 4.3 74 1.9 WSW 50 72 27 39 1013.6 - 1.0
03/01:30pm 7.6 -7.5 3.6 76 1.7 WSW 72 95 39 51 1013.1 - 1.0
03/01:15pm 8.1 -8.5 5.7 85 1.1 SW 82 106 44 57 1012.7 - 1.0
03/01:13pm 8.2 -8.0 5.5 83 1.2 SW 80 95 43 51 1012.7 - 0.8
03/01:00pm 9.4 -3.3 2.8 63 2.8 WSW 59 83 32 45 1012.6 - 0.8
03/12:37pm 8.9 -2.0 3.3 68 2.4 WSW 50 74 27 40 1012.5 - 0.8
03/12:30pm 8.9 -1.8 4.6 74 1.9 WSW 50 65 27 35 1012.5 - 0.8
03/12:01pm 8.1 -3.9 3.7 74 1.9 WSW 56 76 30 41 1012.2 - 0.8
03/12:00pm 8.2 -3.6 4.8 79 1.5 WSW 56 72 30 39 1012.2 1012.4 0.8
03/11:30am 8.1 -4.1 5.7 85 1.1 WSW 59 80 32 43 1012.5 - 0.8
03/11:07am 8.1 -3.1 5.9 86 1.0 WSW 54 76 29 41 1012.4 - 0.6
03/11:00am 8.4 -2.7 6.2 86 1.0 WSW 54 65 29 35 1012.5 - 0.4
03/10:30am 8.7 -3.0 6.1 84 1.2 WSW 57 80 31 43 1011.9 - 0.2
03/10:09am 9.1 -2.9 6.5 84 1.2 SW 59 78 32 42 1011.3 - 0.0
03/10:00am 9.5 -2.5 6.7 83 1.3 SW 59 74 32 40 1011.1 - 0.0
03/09:36am 10.4 -1.3 6.3 76 1.9 WSW 57 76 31 41 1010.3 - 0.0
03/09:30am 10.4 -1.9 6.8 78 1.7 WSW 61 76 33 41 1010.3 - 0.0
03/09:20am 10.4 -2.0 6.3 76 1.9 SW 61 80 33 43 1010.2 - 0.0
03/09:00am 10.6 -0.8 6.8 77 1.8 SW 56 69 30 37 1010.1 1010.0 0.6
03/08:44am 10.8 -0.2 6.8 76 1.9 SW 54 72 29 39 1009.7 - 0.6
03/08:43am 10.9 -0.1 6.9 76 1.9 SW 54 69 29 37 1009.8 - 0.6
03/08:33am 11.2 4.8 5.1 66 2.8 SW 28 48 15 26 1009.6 - 0.6
03/08:30am 10.8 4.9 4.1 63 3.0 WSW 24 35 13 19 1009.6 - 0.6
03/08:00am 10.2 6.5 4.6 68 2.5 WNW 13 19 7 10 1009.0 - 0.6
03/07:30am 9.5 5.8 4.3 70 2.3 NW 13 15 7 8 1008.3 - 0.6
03/07:00am 9.3 5.5 4.1 70 2.3 WNW 13 19 7 10 1008.0 - 0.6
03/06:30am 9.6 4.8 2.6 61 3.0 NNW 17 24 9 13 1007.4 - 0.6
03/06:00am 8.2 3.6 5.8 85 1.1 N 19 24 10 13 1007.6 1007.6 0.6
03/05:30am 7.5 4.0 5.3 86 1.0 N 13 17 7 9 1007.6 - 0.6
03/05:00am 7.3 4.1 5.0 85 1.0 NNW 11 15 6 8 1007.9 - 0.6
03/04:30am 7.7 4.4 4.5 80 1.4 NW 11 13 6 7 1007.9 - 0.6
03/04:00am 8.2 4.4 3.8 74 1.9 NW 13 13 7 7 1007.9 - 0.6
03/03:30am 8.5 5.0 3.6 71 2.1 NW 11 15 6 8 1008.0 - 0.6
03/03:00am 9.3 5.5 4.1 70 2.3 W 13 15 7 8 1008.0 1008.0 0.6
03/02:30am 9.9 5.4 2.4 59 3.2 W 15 20 8 11 1008.2 - 0.6
03/02:00am 9.9 4.9 3.5 64 2.8 WSW 19 24 10 13 1008.2 - 0.6
03/01:30am 10.5 6.1 0.5 50 4.1 N 13 20 7 11 1008.1 - 0.6
03/01:00am 10.8 6.0 0.3 48 4.3 N 15 20 8 11 1008.4 - 0.6
03/12:30am 11.1 5.5 -0.2 45 4.6 N 19 30 10 16 1008.6 - 0.6
03/12:00am 10.6 5.3 -0.3 47 4.4 N 17 26 9 14 1008.9 1008.9 0.6
 
Date/Time
EST
Temp
°C
App
Temp
°C
Dew
Point
Rel
Hum
%
Delta-T
°C
Wind Press
QNH
hPa
Press
MSL
hPa
Rain
since 9 am
mm
Dir
 
Spd
km/h
Gust
km/h
Spd
kts
Gust
kts
02/11:30pm 10.5 5.2 -0.5 46 4.4 N 17 22 9 12 1009.1 - 0.6
02/11:00pm 10.0 4.8 0.1 50 4.0 N 17 24 9 13 1009.5 - 0.6
02/10:30pm 10.3 4.2 0.5 50 4.0 NW 22 33 12 18 1009.7 - 0.6
02/10:00pm 10.0 4.4 1.3 54 3.6 NNW 20 26 11 14 1009.6 - 0.6
02/09:30pm 9.7 4.5 2.4 60 3.1 NNW 19 26 10 14 1009.9 - 0.6
02/09:00pm 9.3 5.5 4.1 70 2.3 NNW 13 20 7 11 1010.1 1010.1 0.6
02/08:30pm 8.9 6.3 6.3 84 1.2 WNW 9 13 5 7 1009.8 - 0.6
02/08:00pm 9.0 5.4 6.9 87 1.0 N 15 20 8 11 1009.7 - 0.6
02/07:30pm 8.7 6.3 7.0 89 0.8 NNW 9 11 5 6 1009.5 - 0.6
02/07:00pm 8.9 6.2 7.2 89 0.8 NW 11 13 6 7 1009.5 - 0.6
02/06:30pm 9.0 6.6 7.1 88 0.9 NW 9 13 5 7 1009.1 - 0.6
02/06:00pm 9.1 6.6 6.7 85 1.1 NNW 9 9 5 5 1008.5 1008.5 0.6
02/05:30pm 10.0 8.0 7.0 81 1.4 NNW 7 9 4 5 1008.2 - 0.6
02/05:00pm 10.6 7.7 6.6 76 1.9 W 11 15 6 8 1008.0 - 0.6
02/04:30pm 11.6 7.0 6.3 70 2.5 WSW 20 26 11 14 1008.0 - 0.6
02/04:00pm 11.8 5.5 5.6 66 2.9 SW 28 33 15 18 1008.2 - 0.6
02/03:30pm 11.4 6.6 7.2 75 2.0 SW 22 26 12 14 1008.2 - 0.6
02/03:00pm 11.6 8.2 7.5 76 2.0 SW 15 19 8 10 1008.0 1008.0 0.6
02/02:30pm 11.5 7.9 8.2 80 1.6 SW 17 22 9 12 1008.0 - 0.6
02/02:00pm 11.1 8.7 8.5 84 1.3 W 11 17 6 9 1007.7 - 0.6
02/01:30pm 10.3 7.0 8.0 86 1.1 W 15 17 8 9 1007.9 - 0.6
02/01:00pm 10.0 6.7 8.1 88 0.9 W 15 22 8 12 1008.3 - 0.6
02/12:30pm 10.1 5.6 8.5 90 0.8 W 22 28 12 15 1009.3 - 0.6
02/12:00pm 10.3 4.1 8.0 86 1.1 WSW 30 35 16 19 1009.4 1009.5 0.6
02/11:30am 10.9 5.1 9.3 90 0.8 WSW 30 37 16 20 1009.9 - 0.6
02/11:00am 10.5 4.3 9.3 92 0.6 WSW 32 39 17 21 1010.2 - 0.6
02/10:30am 10.0 3.8 9.2 95 0.4 WSW 32 39 17 21 1010.7 - 0.4
02/10:00am 10.6 5.6 9.4 92 0.6 WSW 26 30 14 16 1010.5 - 0.4
02/09:30am 10.6 6.7 9.6 93 0.5 W 20 24 11 13 1010.9 - 0.4
02/09:00am 10.0 6.0 9.0 93 0.5 WSW 20 26 11 14 1011.2 1011.1 1.4
02/08:30am 10.2 7.1 8.8 91 0.7 WSW 15 20 8 11 1011.5 - 1.0
02/08:00am 9.8 7.7 8.4 91 0.7 N 9 11 5 6 1011.4 - 1.0
02/07:30am 9.8 6.9 8.1 89 0.8 N 13 17 7 9 1011.4 - 1.0
02/07:00am 9.4 5.8 8.2 92 0.6 N 17 20 9 11 1011.6 - 1.0
02/06:30am 9.0 5.9 7.3 89 0.8 N 13 17 7 9 1011.9 - 0.8
02/06:00am 8.9 4.9 6.8 87 1.0 N 17 20 9 11 1012.2 1012.2 0.8
02/05:30am 9.1 5.3 7.4 89 0.8 N 17 20 9 11 1012.6 - 0.8
02/05:00am 9.1 6.0 7.4 89 0.8 N 13 15 7 8 1012.8 - 0.8
02/04:30am 9.3 6.2 7.2 87 1.0 NNE 13 17 7 9 1013.3 - 0.8
02/04:00am 9.5 5.8 6.5 81 1.4 NNE 15 19 8 10 1013.5 - 0.8
02/03:30am 9.0 5.8 6.9 87 1.0 N 13 17 7 9 1014.4 - 0.8
02/03:00am 9.5 6.6 6.3 80 1.5 WNW 11 15 6 8 1015.0 1015.1 0.6
02/02:30am 9.5 6.5 6.0 79 1.6 NW 11 13 6 7 1015.1 - 0.4
02/02:00am 10.0 6.5 5.4 73 2.1 NW 13 15 7 8 1015.6 - 0.4
02/01:30am 9.9 6.7 5.0 71 2.2 NW 11 15 6 8 1015.1 - 0.4
02/01:00am 9.7 5.8 5.3 74 2.0 NNW 15 17 8 9 1015.2 - 0.4
02/12:30am 9.7 6.3 5.8 77 1.8 NW 13 17 7 9 1015.8 - 0.4
02/12:00am 9.3 5.8 5.6 78 1.7 NW 13 15 7 8 1015.7 1015.7 0.4
 
Date/Time
EST
Temp
°C
App
Temp
°C
Dew
Point
Rel
Hum
%
Delta-T
°C
Wind Press
QNH
hPa
Press
MSL
hPa
Rain
since 9 am
mm
Dir
 
Spd
km/h
Gust
km/h
Spd
kts
Gust
kts
01/11:30pm 9.7 6.4 6.2 79 1.6 NW 13 15 7 8 1016.4 - 0.4
01/11:00pm 9.9 6.5 6.0 77 1.8 WNW 13 19 7 10 1015.9 - 0.4
01/10:30pm 10.0 6.2 5.6 74 2.0 WNW 15 17 8 9 1015.7 - 0.4
01/10:00pm 10.0 5.9 6.3 78 1.7 WNW 17 22 9 12 1016.1 - 0.4
01/09:30pm 10.1 5.9 5.7 74 2.0 W 17 24 9 13 1016.0 - 0.4
01/09:00pm 10.3 5.9 6.4 77 1.8 W 19 26 10 14 1016.4 1016.4 0.4
01/08:30pm 10.5 4.6 5.7 72 2.2 W 26 30 14 16 1016.1 - 0.4
01/08:00pm 10.4 5.0 6.3 76 1.9 W 24 32 13 17 1016.1 - 0.4
01/07:30pm 10.3 4.9 6.4 77 1.8 W 24 30 13 16 1015.9 - 0.4
01/07:00pm 10.3 5.4 6.9 79 1.6 W 22 28 12 15 1015.4 - 0.4
01/06:30pm 10.3 4.7 7.1 80 1.5 W 26 33 14 18 1015.1 - 0.4
01/06:00pm 10.3 5.1 7.1 80 1.5 W 24 32 13 17 1015.0 1015.0 0.4
01/05:30pm 10.2 5.1 7.7 84 1.2 W 24 28 13 15 1014.9 - 0.4
01/05:00pm 10.2 4.8 8.1 87 1.0 W 26 33 14 18 1014.6 - 0.4
01/04:30pm 10.8 3.9 9.0 89 0.9 WSW 35 43 19 23 1014.3 - 0.0
01/04:00pm 11.2 4.0 9.2 87 1.0 WSW 37 44 20 24 1013.8 - 0.0
01/03:30pm 11.4 3.0 9.8 90 0.8 SW 44 54 24 29 1013.4 - 0.0
01/03:00pm 11.7 3.3 9.7 87 1.0 SW 44 56 24 30 1012.7 1012.6 0.0
01/02:30pm 12.5 2.8 9.1 80 1.7 SW 50 59 27 32 1011.5 - 0.0
01/02:00pm 12.8 3.1 10.5 86 1.2 SW 52 59 28 32 1011.1 - 0.0
01/01:30pm 13.8 3.8 10.6 81 1.7 SW 54 67 29 36 1010.9 - 0.0

Other Formats:

Comma delimited format used in spreadsheet applications
http://www.bom.gov.au/fwo/IDN60801/IDN60801.94933.axf

JavaScript Object Notation format (JSON) in row-major order
http://www.bom.gov.au/fwo/IDN60801/IDN60801.94933.json